sensor_id;sensor_type;location;lat;lon;timestamp;temperature;humidity
51783;DHT22;37845;53.196;5.638;2023-02-01T00:00:03;6.80;99.90
51783;DHT22;37845;53.196;5.638;2023-02-01T00:02:29;6.80;99.90
51783;DHT22;37845;53.196;5.638;2023-02-01T00:04:55;7.20;99.90
51783;DHT22;37845;53.196;5.638;2023-02-01T00:07:20;6.80;99.90
51783;DHT22;37845;53.196;5.638;2023-02-01T00:09:46;6.80;99.90
51783;DHT22;37845;53.196;5.638;2023-02-01T00:12:11;7.30;99.90
51783;DHT22;37845;53.196;5.638;2023-02-01T00:14:37;6.80;99.90
51783;DHT22;37845;53.196;5.638;2023-02-01T00:17:05;6.70;99.90
51783;DHT22;37845;53.196;5.638;2023-02-01T00:19:32;6.80;99.90
51783;DHT22;37845;53.196;5.638;2023-02-01T00:21:57;6.70;99.90
51783;DHT22;37845;53.196;5.638;2023-02-01T00:24:23;6.70;99.90
51783;DHT22;37845;53.196;5.638;2023-02-01T00:26:48;6.70;99.90
51783;DHT22;37845;53.196;5.638;2023-02-01T00:29:15;6.70;99.90
51783;DHT22;37845;53.196;5.638;2023-02-01T00:31:41;6.70;99.90
51783;DHT22;37845;53.196;5.638;2023-02-01T00:34:08;6.80;99.90
51783;DHT22;37845;53.196;5.638;2023-02-01T00:36:35;6.40;99.90
51783;DHT22;37845;53.196;5.638;2023-02-01T00:39:00;6.70;99.90
51783;DHT22;37845;53.196;5.638;2023-02-01T00:41:26;7.20;99.90
51783;DHT22;37845;53.196;5.638;2023-02-01T00:43:52;6.70;99.90
51783;DHT22;37845;53.196;5.638;2023-02-01T00:46:18;6.80;99.90
51783;DHT22;37845;53.196;5.638;2023-02-01T00:48:44;6.80;99.90
51783;DHT22;37845;53.196;5.638;2023-02-01T00:51:14;6.80;99.90
51783;DHT22;37845;53.196;5.638;2023-02-01T00:53:40;6.80;99.90
51783;DHT22;37845;53.196;5.638;2023-02-01T00:56:05;6.80;99.90
51783;DHT22;37845;53.196;5.638;2023-02-01T00:58:31;6.80;99.90
51783;DHT22;37845;53.196;5.638;2023-02-01T01:03:43;6.80;99.90
51783;DHT22;37845;53.196;5.638;2023-02-01T01:06:10;6.80;99.90
51783;DHT22;37845;53.196;5.638;2023-02-01T01:08:36;6.90;99.90
51783;DHT22;37845;53.196;5.638;2023-02-01T01:11:10;6.90;99.90
51783;DHT22;37845;53.196;5.638;2023-02-01T01:13:36;6.90;99.90
51783;DHT22;37845;53.196;5.638;2023-02-01T01:16:06;6.80;99.90
51783;DHT22;37845;53.196;5.638;2023-02-01T01:18:32;6.80;99.90
51783;DHT22;37845;53.196;5.638;2023-02-01T01:20:57;6.80;99.90
51783;DHT22;37845;53.196;5.638;2023-02-01T01:23:23;6.80;99.90
51783;DHT22;37845;53.196;5.638;2023-02-01T01:25:49;6.80;99.90
51783;DHT22;37845;53.196;5.638;2023-02-01T01:28:14;6.80;99.90
51783;DHT22;37845;53.196;5.638;2023-02-01T01:30:40;6.70;99.90
51783;DHT22;37845;53.196;5.638;2023-02-01T01:33:05;6.80;99.90
51783;DHT22;37845;53.196;5.638;2023-02-01T01:35:31;6.80;99.90
51783;DHT22;37845;53.196;5.638;2023-02-01T01:37:57;6.70;99.90
51783;DHT22;37845;53.196;5.638;2023-02-01T01:40:23;6.70;99.90
51783;DHT22;37845;53.196;5.638;2023-02-01T01:42:49;6.70;99.90
51783;DHT22;37845;53.196;5.638;2023-02-01T01:45:28;6.70;99.90
51783;DHT22;37845;53.196;5.638;2023-02-01T01:47:58;6.70;99.90
51783;DHT22;37845;53.196;5.638;2023-02-01T01:50:28;6.80;99.90
51783;DHT22;37845;53.196;5.638;2023-02-01T01:52:55;6.70;99.90
51783;DHT22;37845;53.196;5.638;2023-02-01T01:55:22;6.70;99.90
51783;DHT22;37845;53.196;5.638;2023-02-01T01:58:02;6.70;99.90
51783;DHT22;37845;53.196;5.638;2023-02-01T02:00:30;6.70;99.90
51783;DHT22;37845;53.196;5.638;2023-02-01T02:02:58;6.70;99.90
51783;DHT22;37845;53.196;5.638;2023-02-01T02:05:24;7.30;99.90
51783;DHT22;37845;53.196;5.638;2023-02-01T02:07:50;6.70;99.90
51783;DHT22;37845;53.196;5.638;2023-02-01T02:10:17;6.70;99.90
51783;DHT22;37845;53.196;5.638;2023-02-01T02:12:44;6.80;99.90
51783;DHT22;37845;53.196;5.638;2023-02-01T02:15:10;6.80;99.90
51783;DHT22;37845;53.196;5.638;2023-02-01T02:20:46;6.80;99.90
51783;DHT22;37845;53.196;5.638;2023-02-01T02:30:42;6.80;99.90
51783;DHT22;37845;53.196;5.638;2023-02-01T02:40:58;6.90;99.90
51783;DHT22;37845;53.196;5.638;2023-02-01T02:43:32;6.90;99.90
51783;DHT22;37845;53.196;5.638;2023-02-01T02:46:33;6.90;99.90
51783;DHT22;37845;53.196;5.638;2023-02-01T02:51:51;6.90;99.90
51783;DHT22;37845;53.196;5.638;2023-02-01T02:54:38;6.90;99.90
51783;DHT22;37845;53.196;5.638;2023-02-01T02:57:12;6.90;99.90
51783;DHT22;37845;53.196;5.638;2023-02-01T02:59:57;6.90;99.90
51783;DHT22;37845;53.196;5.638;2023-02-01T03:02:42;6.80;99.90
51783;DHT22;37845;53.196;5.638;2023-02-01T03:05:34;6.90;99.90
51783;DHT22;37845;53.196;5.638;2023-02-01T03:08:04;6.90;99.90
51783;DHT22;37845;53.196;5.638;2023-02-01T03:18:42;6.90;99.90
51783;DHT22;37845;53.196;5.638;2023-02-01T03:21:12;6.90;99.90
51783;DHT22;37845;53.196;5.638;2023-02-01T03:23:41;6.90;99.90
51783;DHT22;37845;53.196;5.638;2023-02-01T03:26:09;6.90;99.90
51783;DHT22;37845;53.196;5.638;2023-02-01T03:28:36;7.30;99.90
51783;DHT22;37845;53.196;5.638;2023-02-01T03:31:03;6.90;99.90
51783;DHT22;37845;53.196;5.638;2023-02-01T03:33:29;6.80;99.90
51783;DHT22;37845;53.196;5.638;2023-02-01T03:38:49;6.90;99.90
51783;DHT22;37845;53.196;5.638;2023-02-01T03:41:23;6.80;99.90
51783;DHT22;37845;53.196;5.638;2023-02-01T03:46:17;6.80;99.90
51783;DHT22;37845;53.196;5.638;2023-02-01T03:48:44;6.80;99.90
51783;DHT22;37845;53.196;5.638;2023-02-01T03:51:09;6.80;99.90
51783;DHT22;37845;53.196;5.638;2023-02-01T03:53:36;6.80;99.90
51783;DHT22;37845;53.196;5.638;2023-02-01T03:56:02;6.80;99.90
51783;DHT22;37845;53.196;5.638;2023-02-01T03:58:28;6.80;99.90
51783;DHT22;37845;53.196;5.638;2023-02-01T04:00:55;6.80;99.90
51783;DHT22;37845;53.196;5.638;2023-02-01T04:03:21;6.80;99.90
51783;DHT22;37845;53.196;5.638;2023-02-01T04:05:50;6.70;99.90
51783;DHT22;37845;53.196;5.638;2023-02-01T04:08:16;6.70;99.90
51783;DHT22;37845;53.196;5.638;2023-02-01T04:10:41;6.80;99.90
51783;DHT22;37845;53.196;5.638;2023-02-01T04:13:07;6.70;99.90
51783;DHT22;37845;53.196;5.638;2023-02-01T04:15:33;6.70;99.90
51783;DHT22;37845;53.196;5.638;2023-02-01T04:18:00;6.60;99.90
51783;DHT22;37845;53.196;5.638;2023-02-01T04:20:25;6.60;99.90
51783;DHT22;37845;53.196;5.638;2023-02-01T04:22:51;6.50;99.90
51783;DHT22;37845;53.196;5.638;2023-02-01T04:25:17;6.50;99.90
51783;DHT22;37845;53.196;5.638;2023-02-01T04:27:42;6.50;99.90
51783;DHT22;37845;53.196;5.638;2023-02-01T04:30:08;6.50;99.90
51783;DHT22;37845;53.196;5.638;2023-02-01T04:32:35;6.40;99.90
51783;DHT22;37845;53.196;5.638;2023-02-01T04:35:01;6.40;99.90
51783;DHT22;37845;53.196;5.638;2023-02-01T04:37:27;6.40;99.90
51783;DHT22;37845;53.196;5.638;2023-02-01T04:39:52;6.50;99.90
51783;DHT22;37845;53.196;5.638;2023-02-01T04:42:23;6.60;99.90
51783;DHT22;37845;53.196;5.638;2023-02-01T04:44:58;6.50;99.90
51783;DHT22;37845;53.196;5.638;2023-02-01T04:47:24;6.50;99.90
51783;DHT22;37845;53.196;5.638;2023-02-01T04:49:49;6.50;99.90
51783;DHT22;37845;53.196;5.638;2023-02-01T04:52:15;6.60;99.90
51783;DHT22;37845;53.196;5.638;2023-02-01T04:54:41;7.70;99.90
51783;DHT22;37845;53.196;5.638;2023-02-01T04:57:09;6.60;99.90
51783;DHT22;37845;53.196;5.638;2023-02-01T04:59:34;6.60;99.90
51783;DHT22;37845;53.196;5.638;2023-02-01T05:02:00;6.60;99.90
51783;DHT22;37845;53.196;5.638;2023-02-01T05:04:26;6.60;99.90
51783;DHT22;37845;53.196;5.638;2023-02-01T05:06:51;6.60;99.90
51783;DHT22;37845;53.196;5.638;2023-02-01T05:09:17;6.60;99.90
51783;DHT22;37845;53.196;5.638;2023-02-01T05:11:42;6.60;99.90
51783;DHT22;37845;53.196;5.638;2023-02-01T05:14:27;6.60;99.90
51783;DHT22;37845;53.196;5.638;2023-02-01T05:16:53;6.50;99.90
51783;DHT22;37845;53.196;5.638;2023-02-01T05:19:18;7.40;99.90
51783;DHT22;37845;53.196;5.638;2023-02-01T05:21:44;6.60;99.90
51783;DHT22;37845;53.196;5.638;2023-02-01T05:24:09;7.70;99.90
51783;DHT22;37845;53.196;5.638;2023-02-01T05:26:41;6.50;99.90
51783;DHT22;37845;53.196;5.638;2023-02-01T05:29:07;6.60;99.90
51783;DHT22;37845;53.196;5.638;2023-02-01T05:31:33;6.60;99.90
51783;DHT22;37845;53.196;5.638;2023-02-01T05:33:59;6.60;99.90
51783;DHT22;37845;53.196;5.638;2023-02-01T05:36:25;6.60;99.90
51783;DHT22;37845;53.196;5.638;2023-02-01T05:38:50;7.20;99.90
51783;DHT22;37845;53.196;5.638;2023-02-01T05:41:16;6.60;99.90
51783;DHT22;37845;53.196;5.638;2023-02-01T05:43:42;6.60;99.90
51783;DHT22;37845;53.196;5.638;2023-02-01T05:46:07;6.60;99.90
51783;DHT22;37845;53.196;5.638;2023-02-01T05:48:35;6.60;99.90
51783;DHT22;37845;53.196;5.638;2023-02-01T05:51:01;6.60;99.90
51783;DHT22;37845;53.196;5.638;2023-02-01T05:53:27;6.60;99.90
51783;DHT22;37845;53.196;5.638;2023-02-01T05:55:52;6.60;99.90
51783;DHT22;37845;53.196;5.638;2023-02-01T05:58:18;6.50;99.90
51783;DHT22;37845;53.196;5.638;2023-02-01T06:00:43;6.50;99.90
51783;DHT22;37845;53.196;5.638;2023-02-01T06:03:09;6.50;99.90
51783;DHT22;37845;53.196;5.638;2023-02-01T06:05:35;6.40;99.90
51783;DHT22;37845;53.196;5.638;2023-02-01T06:08:00;6.40;99.90
51783;DHT22;37845;53.196;5.638;2023-02-01T06:10:26;6.50;99.90
51783;DHT22;37845;53.196;5.638;2023-02-01T06:12:51;6.50;99.90
51783;DHT22;37845;53.196;5.638;2023-02-01T06:15:18;6.40;99.90
51783;DHT22;37845;53.196;5.638;2023-02-01T06:17:44;6.50;99.90
51783;DHT22;37845;53.196;5.638;2023-02-01T06:20:10;6.40;99.90
51783;DHT22;37845;53.196;5.638;2023-02-01T06:22:36;6.50;99.90
51783;DHT22;37845;53.196;5.638;2023-02-01T06:25:03;6.50;99.90
51783;DHT22;37845;53.196;5.638;2023-02-01T06:27:29;6.80;99.90
51783;DHT22;37845;53.196;5.638;2023-02-01T06:29:55;6.90;99.90
51783;DHT22;37845;53.196;5.638;2023-02-01T06:32:21;6.50;99.90
51783;DHT22;37845;53.196;5.638;2023-02-01T06:34:48;6.50;99.90
51783;DHT22;37845;53.196;5.638;2023-02-01T06:37:13;6.50;99.90
51783;DHT22;37845;53.196;5.638;2023-02-01T06:39:39;6.50;99.90
51783;DHT22;37845;53.196;5.638;2023-02-01T06:42:05;6.50;99.90
51783;DHT22;37845;53.196;5.638;2023-02-01T06:44:30;6.40;99.90
51783;DHT22;37845;53.196;5.638;2023-02-01T06:46:56;6.40;99.90
51783;DHT22;37845;53.196;5.638;2023-02-01T06:49:22;6.40;99.90
51783;DHT22;37845;53.196;5.638;2023-02-01T06:51:47;6.30;99.90
51783;DHT22;37845;53.196;5.638;2023-02-01T06:54:13;6.40;99.90
51783;DHT22;37845;53.196;5.638;2023-02-01T06:56:39;6.40;99.90
51783;DHT22;37845;53.196;5.638;2023-02-01T06:59:05;6.40;99.90
51783;DHT22;37845;53.196;5.638;2023-02-01T07:01:30;6.40;99.90
51783;DHT22;37845;53.196;5.638;2023-02-01T07:03:56;6.30;99.90
51783;DHT22;37845;53.196;5.638;2023-02-01T07:06:22;6.30;99.90
51783;DHT22;37845;53.196;5.638;2023-02-01T07:08:48;6.30;99.90
51783;DHT22;37845;53.196;5.638;2023-02-01T07:11:14;6.30;99.90
51783;DHT22;37845;53.196;5.638;2023-02-01T07:13:40;6.80;99.90
51783;DHT22;37845;53.196;5.638;2023-02-01T07:16:07;6.60;99.90
51783;DHT22;37845;53.196;5.638;2023-02-01T07:18:33;6.30;99.90
51783;DHT22;37845;53.196;5.638;2023-02-01T07:20:59;6.30;99.90
51783;DHT22;37845;53.196;5.638;2023-02-01T07:23:25;6.40;99.90
51783;DHT22;37845;53.196;5.638;2023-02-01T07:25:55;6.40;99.90
51783;DHT22;37845;53.196;5.638;2023-02-01T07:28:27;6.40;99.90
51783;DHT22;37845;53.196;5.638;2023-02-01T07:30:53;7.50;99.90
51783;DHT22;37845;53.196;5.638;2023-02-01T07:33:20;6.10;99.90
51783;DHT22;37845;53.196;5.638;2023-02-01T07:35:47;6.50;99.90
51783;DHT22;37845;53.196;5.638;2023-02-01T07:38:12;7.70;99.90
51783;DHT22;37845;53.196;5.638;2023-02-01T07:40:38;6.50;99.90
51783;DHT22;37845;53.196;5.638;2023-02-01T07:43:04;6.60;99.90
51783;DHT22;37845;53.196;5.638;2023-02-01T07:45:31;6.50;99.90
51783;DHT22;37845;53.196;5.638;2023-02-01T07:47:57;6.50;99.90
51783;DHT22;37845;53.196;5.638;2023-02-01T07:50:22;6.50;99.90
51783;DHT22;37845;53.196;5.638;2023-02-01T07:52:48;6.50;99.90
51783;DHT22;37845;53.196;5.638;2023-02-01T07:55:14;6.50;99.90
51783;DHT22;37845;53.196;5.638;2023-02-01T07:57:39;6.50;99.90
51783;DHT22;37845;53.196;5.638;2023-02-01T08:00:05;6.50;99.90
51783;DHT22;37845;53.196;5.638;2023-02-01T08:02:49;6.60;99.90
51783;DHT22;37845;53.196;5.638;2023-02-01T08:05:15;6.60;99.90
51783;DHT22;37845;53.196;5.638;2023-02-01T08:07:40;6.60;99.90
51783;DHT22;37845;53.196;5.638;2023-02-01T08:10:06;6.60;99.90
51783;DHT22;37845;53.196;5.638;2023-02-01T08:12:36;6.60;99.90
51783;DHT22;37845;53.196;5.638;2023-02-01T08:15:02;7.20;99.90
51783;DHT22;37845;53.196;5.638;2023-02-01T08:17:28;6.60;99.90
51783;DHT22;37845;53.196;5.638;2023-02-01T08:19:54;6.70;99.90
51783;DHT22;37845;53.196;5.638;2023-02-01T08:22:20;6.70;99.90
51783;DHT22;37845;53.196;5.638;2023-02-01T08:24:48;6.70;99.90
51783;DHT22;37845;53.196;5.638;2023-02-01T08:27:14;6.70;99.90
51783;DHT22;37845;53.196;5.638;2023-02-01T08:29:40;6.70;99.90
51783;DHT22;37845;53.196;5.638;2023-02-01T08:32:05;6.70;99.90
51783;DHT22;37845;53.196;5.638;2023-02-01T08:34:31;6.80;99.90
51783;DHT22;37845;53.196;5.638;2023-02-01T08:36:56;6.80;99.90
51783;DHT22;37845;53.196;5.638;2023-02-01T08:39:25;6.80;99.90
51783;DHT22;37845;53.196;5.638;2023-02-01T08:41:51;6.80;99.90
51783;DHT22;37845;53.196;5.638;2023-02-01T08:44:36;6.70;99.90
51783;DHT22;37845;53.196;5.638;2023-02-01T08:47:02;6.80;99.90
51783;DHT22;37845;53.196;5.638;2023-02-01T08:49:28;6.90;99.90
51783;DHT22;37845;53.196;5.638;2023-02-01T08:51:53;6.90;99.90
51783;DHT22;37845;53.196;5.638;2023-02-01T08:54:20;7.10;99.90
51783;DHT22;37845;53.196;5.638;2023-02-01T08:56:45;7.00;99.90
51783;DHT22;37845;53.196;5.638;2023-02-01T08:59:11;6.90;99.90
51783;DHT22;37845;53.196;5.638;2023-02-01T09:01:36;7.00;99.90
51783;DHT22;37845;53.196;5.638;2023-02-01T09:04:02;6.90;99.90
51783;DHT22;37845;53.196;5.638;2023-02-01T09:06:27;6.90;99.90
51783;DHT22;37845;53.196;5.638;2023-02-01T09:08:53;7.00;99.90
51783;DHT22;37845;53.196;5.638;2023-02-01T09:11:19;7.00;99.90
51783;DHT22;37845;53.196;5.638;2023-02-01T09:13:44;8.10;99.90
51783;DHT22;37845;53.196;5.638;2023-02-01T09:16:10;7.10;99.90
51783;DHT22;37845;53.196;5.638;2023-02-01T09:18:36;7.00;99.90
51783;DHT22;37845;53.196;5.638;2023-02-01T09:21:05;7.00;99.90
51783;DHT22;37845;53.196;5.638;2023-02-01T09:23:31;7.00;99.90
51783;DHT22;37845;53.196;5.638;2023-02-01T09:26:00;7.00;99.90
51783;DHT22;37845;53.196;5.638;2023-02-01T09:28:26;7.00;99.90
51783;DHT22;37845;53.196;5.638;2023-02-01T09:30:58;7.00;99.90
51783;DHT22;37845;53.196;5.638;2023-02-01T09:33:25;7.00;99.90
51783;DHT22;37845;53.196;5.638;2023-02-01T09:36:00;7.00;99.90
51783;DHT22;37845;53.196;5.638;2023-02-01T09:38:26;7.00;99.90
51783;DHT22;37845;53.196;5.638;2023-02-01T09:40:53;7.00;99.90
51783;DHT22;37845;53.196;5.638;2023-02-01T09:48:12;7.00;99.90
51783;DHT22;37845;53.196;5.638;2023-02-01T09:50:39;7.00;99.90
51783;DHT22;37845;53.196;5.638;2023-02-01T09:53:10;7.00;99.90
51783;DHT22;37845;53.196;5.638;2023-02-01T10:01:03;7.10;99.90
51783;DHT22;37845;53.196;5.638;2023-02-01T10:03:32;7.10;99.90
51783;DHT22;37845;53.196;5.638;2023-02-01T10:08:37;7.30;99.90
51783;DHT22;37845;53.196;5.638;2023-02-01T10:11:19;7.40;99.90
51783;DHT22;37845;53.196;5.638;2023-02-01T10:14:09;7.90;99.90
51783;DHT22;37845;53.196;5.638;2023-02-01T10:16:44;7.60;99.90
51783;DHT22;37845;53.196;5.638;2023-02-01T10:19:33;7.60;99.90
51783;DHT22;37845;53.196;5.638;2023-02-01T10:22:02;7.60;99.90
51783;DHT22;37845;53.196;5.638;2023-02-01T10:24:34;7.50;99.90
51783;DHT22;37845;53.196;5.638;2023-02-01T10:27:02;7.60;99.90
51783;DHT22;37845;53.196;5.638;2023-02-01T10:29:33;7.60;99.90
51783;DHT22;37845;53.196;5.638;2023-02-01T10:32:00;7.60;99.90
51783;DHT22;37845;53.196;5.638;2023-02-01T10:34:27;7.60;99.90
51783;DHT22;37845;53.196;5.638;2023-02-01T10:36:54;7.70;99.90
51783;DHT22;37845;53.196;5.638;2023-02-01T10:39:20;7.70;99.90
51783;DHT22;37845;53.196;5.638;2023-02-01T10:41:46;7.80;99.90
51783;DHT22;37845;53.196;5.638;2023-02-01T10:44:15;7.70;99.90
51783;DHT22;37845;53.196;5.638;2023-02-01T10:46:42;7.70;99.90
51783;DHT22;37845;53.196;5.638;2023-02-01T10:49:11;7.70;99.90
51783;DHT22;37845;53.196;5.638;2023-02-01T10:51:42;7.80;99.90
51783;DHT22;37845;53.196;5.638;2023-02-01T10:54:14;7.80;99.90
51783;DHT22;37845;53.196;5.638;2023-02-01T10:56:41;7.70;99.90
51783;DHT22;37845;53.196;5.638;2023-02-01T10:59:14;7.70;99.90
51783;DHT22;37845;53.196;5.638;2023-02-01T11:01:40;7.70;99.90
51783;DHT22;37845;53.196;5.638;2023-02-01T11:04:09;7.70;99.90
51783;DHT22;37845;53.196;5.638;2023-02-01T11:06:45;7.40;99.90
51783;DHT22;37845;53.196;5.638;2023-02-01T11:09:16;7.60;99.90
51783;DHT22;37845;53.196;5.638;2023-02-01T11:14:22;7.60;99.90
51783;DHT22;37845;53.196;5.638;2023-02-01T11:16:55;7.60;99.90
51783;DHT22;37845;53.196;5.638;2023-02-01T11:19:24;7.60;99.90
51783;DHT22;37845;53.196;5.638;2023-02-01T11:21:56;7.60;99.90
51783;DHT22;37845;53.196;5.638;2023-02-01T11:24:33;7.60;99.90
51783;DHT22;37845;53.196;5.638;2023-02-01T11:27:04;7.60;99.90
51783;DHT22;37845;53.196;5.638;2023-02-01T11:29:38;7.60;99.90
51783;DHT22;37845;53.196;5.638;2023-02-01T11:32:04;7.60;99.90
51783;DHT22;37845;53.196;5.638;2023-02-01T11:34:36;7.60;99.90
51783;DHT22;37845;53.196;5.638;2023-02-01T11:37:03;7.70;99.90
51783;DHT22;37845;53.196;5.638;2023-02-01T11:39:33;7.70;99.90
51783;DHT22;37845;53.196;5.638;2023-02-01T11:42:01;7.90;99.90
51783;DHT22;37845;53.196;5.638;2023-02-01T11:49:43;7.80;99.90
51783;DHT22;37845;53.196;5.638;2023-02-01T12:09:08;7.80;99.90
51783;DHT22;37845;53.196;5.638;2023-02-01T12:11:38;7.80;99.90
51783;DHT22;37845;53.196;5.638;2023-02-01T12:14:55;7.80;99.90
51783;DHT22;37845;53.196;5.638;2023-02-01T12:19:54;7.90;99.90
51783;DHT22;37845;53.196;5.638;2023-02-01T12:37:38;7.90;99.90
51783;DHT22;37845;53.196;5.638;2023-02-01T12:40:26;7.90;99.90
51783;DHT22;37845;53.196;5.638;2023-02-01T12:43:01;7.90;99.90
51783;DHT22;37845;53.196;5.638;2023-02-01T12:48:01;7.70;99.90
51783;DHT22;37845;53.196;5.638;2023-02-01T12:50:36;7.70;99.90
51783;DHT22;37845;53.196;5.638;2023-02-01T12:55:50;7.80;99.90
51783;DHT22;37845;53.196;5.638;2023-02-01T12:58:38;7.80;99.90
51783;DHT22;37845;53.196;5.638;2023-02-01T13:01:39;7.80;99.90
51783;DHT22;37845;53.196;5.638;2023-02-01T13:04:10;7.80;99.90
51783;DHT22;37845;53.196;5.638;2023-02-01T13:06:51;7.80;99.90
51783;DHT22;37845;53.196;5.638;2023-02-01T13:12:11;7.80;99.90
51783;DHT22;37845;53.196;5.638;2023-02-01T13:14:58;7.90;99.90
51783;DHT22;37845;53.196;5.638;2023-02-01T13:17:29;9.00;99.90
51783;DHT22;37845;53.196;5.638;2023-02-01T13:22:34;8.00;99.90
51783;DHT22;37845;53.196;5.638;2023-02-01T13:44:54;7.80;99.90
51783;DHT22;37845;53.196;5.638;2023-02-01T13:47:26;8.90;99.90
51783;DHT22;37845;53.196;5.638;2023-02-01T13:49:53;7.90;99.90
51783;DHT22;37845;53.196;5.638;2023-02-01T14:25:14;8.10;99.90
51783;DHT22;37845;53.196;5.638;2023-02-01T14:33:54;8.20;99.90
51783;DHT22;37845;53.196;5.638;2023-02-01T14:36:24;8.60;99.90
51783;DHT22;37845;53.196;5.638;2023-02-01T14:56:31;8.00;99.90
51783;DHT22;37845;53.196;5.638;2023-02-01T15:34:44;7.80;99.90
51783;DHT22;37845;53.196;5.638;2023-02-01T15:37:13;7.70;99.90
51783;DHT22;37845;53.196;5.638;2023-02-01T15:40:02;7.70;99.90
51783;DHT22;37845;53.196;5.638;2023-02-01T15:42:26;7.70;99.90
51783;DHT22;37845;53.196;5.638;2023-02-01T15:44:53;7.60;99.90
51783;DHT22;37845;53.196;5.638;2023-02-01T15:47:23;7.60;99.90
51783;DHT22;37845;53.196;5.638;2023-02-01T15:49:59;7.60;99.90
51783;DHT22;37845;53.196;5.638;2023-02-01T15:54:58;7.60;99.90
51783;DHT22;37845;53.196;5.638;2023-02-01T15:57:26;7.60;99.90
51783;DHT22;37845;53.196;5.638;2023-02-01T15:59:56;7.60;99.90
51783;DHT22;37845;53.196;5.638;2023-02-01T16:07:37;7.70;99.90
51783;DHT22;37845;53.196;5.638;2023-02-01T16:10:18;8.30;99.90
51783;DHT22;37845;53.196;5.638;2023-02-01T16:12:46;7.70;99.90
51783;DHT22;37845;53.196;5.638;2023-02-01T16:15:12;7.60;99.90
51783;DHT22;37845;53.196;5.638;2023-02-01T16:17:38;7.60;99.90
51783;DHT22;37845;53.196;5.638;2023-02-01T16:20:03;7.50;99.90
51783;DHT22;37845;53.196;5.638;2023-02-01T16:22:29;7.50;99.90
51783;DHT22;37845;53.196;5.638;2023-02-01T16:24:55;7.50;99.90
51783;DHT22;37845;53.196;5.638;2023-02-01T16:27:21;7.50;99.90
51783;DHT22;37845;53.196;5.638;2023-02-01T16:29:47;7.50;99.90
51783;DHT22;37845;53.196;5.638;2023-02-01T16:32:17;7.40;99.90
51783;DHT22;37845;53.196;5.638;2023-02-01T16:34:44;7.40;99.90
51783;DHT22;37845;53.196;5.638;2023-02-01T16:37:12;7.50;99.90
51783;DHT22;37845;53.196;5.638;2023-02-01T16:39:38;7.40;99.90
51783;DHT22;37845;53.196;5.638;2023-02-01T16:42:11;7.40;99.90
51783;DHT22;37845;53.196;5.638;2023-02-01T16:44:37;7.40;99.90
51783;DHT22;37845;53.196;5.638;2023-02-01T16:47:03;7.30;99.90
51783;DHT22;37845;53.196;5.638;2023-02-01T16:49:34;7.30;99.90
51783;DHT22;37845;53.196;5.638;2023-02-01T16:52:00;7.30;99.90
51783;DHT22;37845;53.196;5.638;2023-02-01T16:54:26;7.20;99.90
51783;DHT22;37845;53.196;5.638;2023-02-01T16:56:52;7.20;99.90
51783;DHT22;37845;53.196;5.638;2023-02-01T16:59:18;7.20;99.90
51783;DHT22;37845;53.196;5.638;2023-02-01T17:01:44;7.20;99.90
51783;DHT22;37845;53.196;5.638;2023-02-01T17:04:09;6.60;99.90
51783;DHT22;37845;53.196;5.638;2023-02-01T17:06:35;7.20;99.90
51783;DHT22;37845;53.196;5.638;2023-02-01T17:09:02;7.20;99.90
51783;DHT22;37845;53.196;5.638;2023-02-01T17:11:28;7.20;99.90
51783;DHT22;37845;53.196;5.638;2023-02-01T17:13:56;7.10;99.90
51783;DHT22;37845;53.196;5.638;2023-02-01T17:19:04;7.10;99.90
51783;DHT22;37845;53.196;5.638;2023-02-01T17:21:33;7.00;99.90
51783;DHT22;37845;53.196;5.638;2023-02-01T17:24:00;7.00;99.90
51783;DHT22;37845;53.196;5.638;2023-02-01T17:26:26;7.10;99.90
51783;DHT22;37845;53.196;5.638;2023-02-01T17:28:52;7.00;99.90
51783;DHT22;37845;53.196;5.638;2023-02-01T17:31:20;7.00;99.90
51783;DHT22;37845;53.196;5.638;2023-02-01T17:33:46;7.00;99.90
51783;DHT22;37845;53.196;5.638;2023-02-01T17:36:13;7.00;99.90
51783;DHT22;37845;53.196;5.638;2023-02-01T17:38:39;7.00;99.90
51783;DHT22;37845;53.196;5.638;2023-02-01T17:41:05;7.10;99.90
51783;DHT22;37845;53.196;5.638;2023-02-01T17:43:31;7.10;99.90
51783;DHT22;37845;53.196;5.638;2023-02-01T17:46:01;7.10;99.90
51783;DHT22;37845;53.196;5.638;2023-02-01T17:48:28;7.10;99.90
51783;DHT22;37845;53.196;5.638;2023-02-01T17:50:53;7.10;99.90
51783;DHT22;37845;53.196;5.638;2023-02-01T17:53:23;7.10;99.90
51783;DHT22;37845;53.196;5.638;2023-02-01T17:55:49;7.10;99.90
51783;DHT22;37845;53.196;5.638;2023-02-01T17:58:16;7.80;99.90
51783;DHT22;37845;53.196;5.638;2023-02-01T18:00:42;7.00;99.90
51783;DHT22;37845;53.196;5.638;2023-02-01T18:03:29;7.00;99.90
51783;DHT22;37845;53.196;5.638;2023-02-01T18:05:55;7.00;99.90
51783;DHT22;37845;53.196;5.638;2023-02-01T18:08:22;7.00;99.90
51783;DHT22;37845;53.196;5.638;2023-02-01T18:10:52;7.00;99.90
51783;DHT22;37845;53.196;5.638;2023-02-01T18:13:19;7.00;99.90
51783;DHT22;37845;53.196;5.638;2023-02-01T18:15:44;7.00;99.90
51783;DHT22;37845;53.196;5.638;2023-02-01T18:18:10;7.00;99.90
51783;DHT22;37845;53.196;5.638;2023-02-01T18:20:36;7.00;99.90
51783;DHT22;37845;53.196;5.638;2023-02-01T18:23:04;6.90;99.90
51783;DHT22;37845;53.196;5.638;2023-02-01T18:25:30;6.80;99.90
51783;DHT22;37845;53.196;5.638;2023-02-01T18:28:01;6.80;99.90
51783;DHT22;37845;53.196;5.638;2023-02-01T18:30:28;6.90;99.90
51783;DHT22;37845;53.196;5.638;2023-02-01T18:32:55;6.70;99.90
51783;DHT22;37845;53.196;5.638;2023-02-01T18:35:22;6.80;99.90
51783;DHT22;37845;53.196;5.638;2023-02-01T18:37:48;6.80;99.90
51783;DHT22;37845;53.196;5.638;2023-02-01T18:40:17;7.00;99.90
51783;DHT22;37845;53.196;5.638;2023-02-01T18:42:43;6.80;99.90
51783;DHT22;37845;53.196;5.638;2023-02-01T18:47:41;6.70;99.90
51783;DHT22;37845;53.196;5.638;2023-02-01T18:50:06;6.80;99.90
51783;DHT22;37845;53.196;5.638;2023-02-01T18:52:32;6.80;99.90
51783;DHT22;37845;53.196;5.638;2023-02-01T18:54:58;6.80;99.90
51783;DHT22;37845;53.196;5.638;2023-02-01T18:57:24;6.80;99.90
51783;DHT22;37845;53.196;5.638;2023-02-01T18:59:51;6.80;99.90
51783;DHT22;37845;53.196;5.638;2023-02-01T19:02:16;6.80;99.90
51783;DHT22;37845;53.196;5.638;2023-02-01T19:04:42;7.70;99.90
51783;DHT22;37845;53.196;5.638;2023-02-01T19:07:07;6.80;99.90
51783;DHT22;37845;53.196;5.638;2023-02-01T19:09:33;6.80;99.90
51783;DHT22;37845;53.196;5.638;2023-02-01T19:12:00;6.80;99.90
51783;DHT22;37845;53.196;5.638;2023-02-01T19:14:27;7.20;99.90
51783;DHT22;37845;53.196;5.638;2023-02-01T19:16:52;6.80;99.90
51783;DHT22;37845;53.196;5.638;2023-02-01T19:19:19;6.80;99.90
51783;DHT22;37845;53.196;5.638;2023-02-01T19:21:44;6.70;99.90
51783;DHT22;37845;53.196;5.638;2023-02-01T19:24:10;6.70;99.90
51783;DHT22;37845;53.196;5.638;2023-02-01T19:26:36;6.70;99.90
51783;DHT22;37845;53.196;5.638;2023-02-01T19:29:01;6.90;99.90
51783;DHT22;37845;53.196;5.638;2023-02-01T19:31:27;6.70;99.90
51783;DHT22;37845;53.196;5.638;2023-02-01T19:33:53;6.80;99.90
51783;DHT22;37845;53.196;5.638;2023-02-01T19:36:18;6.70;99.90
51783;DHT22;37845;53.196;5.638;2023-02-01T19:38:44;6.70;99.90